Time;durP1;ratioP1;P1;durP2;ratioP2;P2;SDS_P1;SDS_P2;PMS_P1;PMS_P2;Temp;Humidity;BMP_temperature;BMP_pressure;BME280_temperature;BME280_humidity;BME280_pressure;Samples;Min_cycle;Max_cycle;Signal;HPM_P1;HPM_P2
2022/05/02 00:01:44;;;;;;;21.15;12.32;;;;;;;6.64;79.83;102042.53;5086203;28;20035;-73
2022/05/02 00:04:10;;;;;;;21.25;11.00;;;;;;;6.61;79.86;102040.19;5080360;28;20028;-73
2022/05/02 00:06:35;;;;;;;23.42;11.98;;;;;;;6.61;79.88;102042.00;5089611;28;20501;-73
2022/05/02 00:09:01;;;;;;;23.13;11.88;;;;;;;6.63;79.42;102035.56;5089762;28;20036;-73
2022/05/02 00:11:26;;;;;;;22.48;12.25;;;;;;;6.64;79.57;102034.59;5087622;28;20475;-72
2022/05/02 00:13:51;;;;;;;20.20;11.35;;;;;;;6.54;79.22;102017.84;5087923;28;20109;-73
2022/05/02 00:16:17;;;;;;;22.00;11.85;;;;;;;6.57;79.62;102029.00;5089414;28;20409;-73
2022/05/02 00:18:42;;;;;;;22.40;11.38;;;;;;;6.40;79.54;102018.31;5088104;28;20437;-72
2022/05/02 00:21:07;;;;;;;21.77;12.85;;;;;;;6.47;79.75;102025.56;5073236;28;20032;-73
2022/05/02 00:23:33;;;;;;;20.50;11.05;;;;;;;6.42;79.82;102022.47;5086250;28;20499;-72
2022/05/02 00:25:58;;;;;;;22.98;12.00;;;;;;;6.35;80.63;102024.84;5089226;28;20028;-73
2022/05/02 00:28:24;;;;;;;24.30;11.27;;;;;;;6.36;80.01;102020.38;5089359;28;20027;-73
2022/05/02 00:30:50;;;;;;;23.33;14.00;;;;;;;6.30;80.00;102020.94;5089300;28;20036;-72
2022/05/02 00:33:18;;;;;;;21.77;11.65;;;;;;;6.26;80.70;102015.09;5088743;28;20142;-73
2022/05/02 00:35:44;;;;;;;21.55;11.23;;;;;;;6.26;80.62;102022.19;5087777;28;20118;-72
2022/05/02 00:38:09;;;;;;;24.83;14.70;;;;;;;6.21;81.07;102008.53;5089212;28;20174;-73
2022/05/02 00:40:35;;;;;;;22.98;11.65;;;;;;;6.21;80.52;102005.88;5088983;28;20066;-72
2022/05/02 00:43:00;;;;;;;23.00;12.38;;;;;;;6.22;81.06;102004.91;5089058;28;20071;-73
2022/05/02 00:45:26;;;;;;;20.88;12.13;;;;;;;6.15;80.97;102001.97;5089055;28;20027;-72
2022/05/02 00:47:56;;;;;;;20.35;11.10;;;;;;;6.11;80.81;102009.38;5088891;28;20081;-72
2022/05/02 00:50:31;;;;;;;22.40;12.48;;;;;;;6.06;81.22;102011.59;5089063;28;20020;-72
2022/05/02 00:52:57;;;;;;;21.10;11.23;;;;;;;5.99;81.29;102002.53;5088982;28;20028;-72
2022/05/02 00:55:23;;;;;;;27.88;13.77;;;;;;;5.95;81.76;102003.78;5088667;28;20590;-72
2022/05/02 00:57:48;;;;;;;22.38;11.75;;;;;;;5.96;81.80;102001.97;5086113;28;20029;-72
2022/05/02 01:00:14;;;;;;;21.60;10.80;;;;;;;5.96;81.96;101997.50;5069630;28;20033;-72
2022/05/02 01:02:40;;;;;;;21.85;11.30;;;;;;;5.94;81.68;101999.44;5069646;28;20039;-72
2022/05/02 01:05:05;;;;;;;24.08;13.63;;;;;;;5.95;81.86;102000.28;5084991;28;20077;-73
2022/05/02 01:07:31;;;;;;;22.52;11.68;;;;;;;5.88;81.50;101992.88;5075873;28;20433;-72
2022/05/02 01:09:56;;;;;;;26.83;12.43;;;;;;;5.91;81.65;102005.81;5069429;28;20036;-73
2022/05/02 01:12:26;;;;;;;20.63;11.48;;;;;;;5.87;81.58;101998.31;5087569;28;20032;-73
2022/05/02 01:14:56;;;;;;;27.42;12.18;;;;;;;5.80;81.61;101998.00;5091118;28;20028;-73
2022/05/02 01:17:22;;;;;;;22.90;12.70;;;;;;;5.76;81.96;101999.25;5090482;28;20024;-72
2022/05/02 01:19:48;;;;;;;24.58;13.52;;;;;;;5.75;81.92;102002.06;5088886;28;20036;-72
2022/05/02 01:22:14;;;;;;;21.27;12.05;;;;;;;5.73;82.30;102002.16;5073476;28;20039;-72
2022/05/02 01:24:44;;;;;;;21.70;12.57;;;;;;;5.72;82.66;102001.34;5081922;28;20032;-72
2022/05/02 01:27:11;;;;;;;22.35;12.77;;;;;;;5.74;82.41;101995.94;5084623;28;20391;-73
2022/05/02 01:29:38;;;;;;;22.42;12.32;;;;;;;5.74;82.96;101988.00;5080969;28;20020;-72
2022/05/02 01:32:06;;;;;;;27.33;13.63;;;;;;;5.77;82.59;101995.66;5088119;28;20024;-72
2022/05/02 01:34:36;;;;;;;24.05;12.35;;;;;;;5.72;82.61;101990.75;5069202;28;20024;-72
2022/05/02 01:37:03;;;;;;;26.33;12.02;;;;;;;5.72;82.46;101998.69;5081044;28;20057;-72
2022/05/02 01:39:29;;;;;;;23.35;12.82;;;;;;;5.68;82.92;101993.81;5088481;28;20081;-72
2022/05/02 01:42:01;;;;;;;23.17;11.38;;;;;;;5.62;82.96;102003.13;5088669;28;20028;-72
2022/05/02 01:44:27;;;;;;;22.98;12.05;;;;;;;5.56;83.24;101994.91;5090356;28;20391;-73
2022/05/02 01:46:53;;;;;;;21.10;12.20;;;;;;;5.50;83.66;101996.25;5092325;28;20027;-73
2022/05/02 01:49:19;;;;;;;23.63;13.77;;;;;;;5.45;83.96;101986.09;5092273;28;20028;-72
2022/05/02 01:51:44;;;;;;;21.63;12.23;;;;;;;5.48;84.44;101983.19;5088846;28;20041;-72
2022/05/02 01:54:10;;;;;;;21.73;12.38;;;;;;;5.44;84.16;101983.59;5072958;28;20102;-72
2022/05/02 01:56:35;;;;;;;27.33;13.40;;;;;;;5.40;84.36;101982.19;5091783;28;20085;-72
2022/05/02 01:59:02;;;;;;;23.70;13.85;;;;;;;5.39;84.51;101983.16;5092153;28;20045;-72
2022/05/02 02:01:28;;;;;;;24.42;14.63;;;;;;;5.40;84.60;101985.69;5092072;28;20032;-72
2022/05/02 02:03:53;;;;;;;26.70;13.73;;;;;;;5.40;84.70;101979.56;5091658;28;20490;-73
2022/05/02 02:06:19;;;;;;;24.42;13.00;;;;;;;5.38;84.48;101984.13;5091982;28;20058;-73
2022/05/02 02:08:44;;;;;;;25.35;13.30;;;;;;;5.30;84.83;101976.88;5090105;28;20028;-72
2022/05/02 02:11:10;;;;;;;27.25;13.55;;;;;;;5.31;85.23;101973.25;5072582;28;20117;-72
2022/05/02 02:13:38;;;;;;;24.38;14.75;;;;;;;5.29;84.78;101980.47;5072248;28;20080;-72
2022/05/02 02:16:07;;;;;;;23.92;12.55;;;;;;;5.25;84.64;101974.63;5091254;28;20046;-72
2022/05/02 02:18:33;;;;;;;21.42;14.60;;;;;;;5.27;84.83;101985.06;5090015;28;20130;-72
2022/05/02 02:20:59;;;;;;;23.83;13.02;;;;;;;5.25;84.67;101981.72;5091368;28;20130;-72
2022/05/02 02:23:24;;;;;;;23.90;12.55;;;;;;;5.22;84.77;101987.28;5078525;28;20120;-73
2022/05/02 02:25:50;;;;;;;23.05;12.57;;;;;;;5.16;84.81;101977.22;5083568;28;20467;-72
2022/05/02 02:28:16;;;;;;;21.77;11.60;;;;;;;5.17;85.11;101986.84;5090799;28;20024;-72
2022/05/02 02:30:43;;;;;;;23.85;12.75;;;;;;;5.13;84.93;101988.91;5091149;28;20031;-72
2022/05/02 02:33:08;;;;;;;21.92;12.30;;;;;;;5.04;85.39;101963.28;5075720;28;20795;-72
2022/05/02 02:35:34;;;;;;;25.20;13.50;;;;;;;5.07;85.57;101983.31;5070339;28;20032;-73
2022/05/02 02:37:59;;;;;;;23.80;12.85;;;;;;;5.02;85.06;101981.06;5089114;28;20032;-73
2022/05/02 02:40:25;;;;;;;20.95;12.30;;;;;;;5.00;85.01;101978.56;5079292;28;20036;-72
2022/05/02 02:42:50;;;;;;;26.77;15.00;;;;;;;4.98;85.04;101971.75;5071786;28;20024;-72
2022/05/02 02:45:16;;;;;;;22.38;12.18;;;;;;;4.97;85.15;101972.69;5075173;28;20042;-72
2022/05/02 02:47:42;;;;;;;22.58;13.23;;;;;;;4.94;85.02;101968.50;5090837;28;20035;-72
2022/05/02 02:50:07;;;;;;;23.85;11.95;;;;;;;4.92;85.23;101964.31;5083775;28;20067;-72
2022/05/02 02:52:33;;;;;;;24.02;12.82;;;;;;;4.93;85.10;101966.84;5078028;28;20085;-72
2022/05/02 02:54:58;;;;;;;24.10;13.38;;;;;;;4.90;85.04;101961.81;5078870;28;20071;-72
2022/05/02 02:57:25;;;;;;;23.33;13.57;;;;;;;4.89;85.65;101961.94;5084482;28;20052;-72
2022/05/02 02:59:50;;;;;;;21.98;12.63;;;;;;;4.87;85.58;101961.22;5091018;28;20550;-72
2022/05/02 03:02:16;;;;;;;23.45;13.73;;;;;;;4.86;85.58;101963.03;5090470;28;20483;-72
2022/05/02 03:07:27;;;;;;;23.10;11.55;;;;;;;4.71;85.22;101951.97;5083564;28;20051;-72
2022/05/02 03:09:53;;;;;;;25.02;12.18;;;;;;;4.68;85.43;101951.41;5071382;28;20685;-72
2022/05/02 03:12:20;;;;;;;25.58;13.52;;;;;;;4.63;85.63;101951.78;5090456;28;20080;-72
2022/05/02 03:14:45;;;;;;;23.75;12.50;;;;;;;4.60;86.14;101950.25;5090977;28;20613;-72
2022/05/02 03:17:10;;;;;;;22.25;11.95;;;;;;;4.56;86.31;101954.13;5090836;28;20024;-72
2022/05/02 03:19:36;;;;;;;22.85;12.85;;;;;;;4.50;86.15;101946.72;5090668;28;20123;-72
2022/05/02 03:22:02;;;;;;;23.00;14.68;;;;;;;4.45;86.23;101940.97;5076629;28;20086;-72
2022/05/02 03:24:28;;;;;;;25.45;13.45;;;;;;;4.47;86.21;101949.63;5085499;28;20383;-72
2022/05/02 03:26:54;;;;;;;25.58;13.95;;;;;;;4.48;86.88;101947.81;5090254;28;20032;-73
2022/05/02 03:29:19;;;;;;;27.60;13.73;;;;;;;4.46;86.75;101949.75;5090302;28;20032;-72
2022/05/02 03:31:45;;;;;;;24.90;13.25;;;;;;;4.44;86.60;101949.88;5090361;28;21053;-72
2022/05/02 03:34:10;;;;;;;22.23;12.55;;;;;;;4.44;86.85;101947.25;5090325;28;20024;-72
2022/05/02 03:36:35;;;;;;;25.52;13.02;;;;;;;4.42;86.66;101941.25;5089964;28;20024;-72
2022/05/02 03:39:02;;;;;;;25.38;14.25;;;;;;;4.39;86.64;101944.97;5072491;28;20033;-72
2022/05/02 03:41:27;;;;;;;24.67;12.77;;;;;;;4.34;86.83;101947.16;5086009;28;20906;-72
2022/05/02 03:43:53;;;;;;;26.13;13.35;;;;;;;4.33;86.72;101953.44;5070434;28;20028;-72
2022/05/02 03:46:18;;;;;;;23.52;12.30;;;;;;;4.34;87.18;101947.16;5083961;28;20042;-72
2022/05/02 03:48:44;;;;;;;24.85;13.27;;;;;;;4.34;86.71;101946.34;5072741;28;20036;-72
2022/05/02 03:51:10;;;;;;;23.73;13.60;;;;;;;4.31;87.10;101941.31;5076318;28;20032;-72
2022/05/02 03:53:35;;;;;;;22.88;13.85;;;;;;;4.29;87.46;101940.59;5072074;28;20028;-72
2022/05/02 03:56:01;;;;;;;24.55;12.55;;;;;;;4.28;87.08;101945.03;5077098;28;20067;-72
2022/05/02 03:58:26;;;;;;;24.67;13.65;;;;;;;4.27;87.26;101945.16;5088337;28;20529;-72
2022/05/02 04:00:51;;;;;;;24.25;13.20;;;;;;;4.23;87.46;101944.59;5077778;28;20499;-72
2022/05/02 04:03:17;;;;;;;22.67;12.70;;;;;;;4.19;86.98;101953.72;5070307;28;20094;-72
2022/05/02 04:05:42;;;;;;;25.63;13.88;;;;;;;4.17;87.48;101951.22;5070060;28;20090;-72
2022/05/02 04:08:07;;;;;;;25.52;13.75;;;;;;;4.15;87.47;101947.03;5069673;28;20032;-72
2022/05/02 04:10:33;;;;;;;23.67;12.93;;;;;;;4.17;87.41;101953.03;5075125;28;20039;-72
2022/05/02 04:12:58;;;;;;;24.08;13.25;;;;;;;4.20;88.01;101958.06;5068727;28;20127;-73
2022/05/02 04:15:23;;;;;;;22.88;12.40;;;;;;;4.21;87.99;101948.31;5069916;28;20111;-73
2022/05/02 04:17:49;;;;;;;20.70;11.82;;;;;;;4.22;87.54;101957.91;5069823;28;20158;-72
2022/05/02 04:20:14;;;;;;;27.60;15.45;;;;;;;4.20;87.64;101952.78;5077408;28;20119;-72
2022/05/02 04:22:40;;;;;;;27.23;13.98;;;;;;;4.06;87.31;101924.88;5086479;28;20069;-72
2022/05/02 04:25:06;;;;;;;26.00;13.10;;;;;;;4.16;87.40;101954.81;5078759;28;20046;-72
2022/05/02 04:27:32;;;;;;;22.92;12.15;;;;;;;4.18;87.61;101955.53;5087012;28;20036;-72
2022/05/02 04:29:57;;;;;;;24.83;13.60;;;;;;;4.21;88.12;101953.59;5089378;28;20383;-72
2022/05/02 04:32:22;;;;;;;23.92;13.18;;;;;;;4.25;87.64;101947.94;5079075;28;20031;-72
2022/05/02 04:34:48;;;;;;;28.08;14.35;;;;;;;4.31;87.65;101951.88;5089332;28;20031;-72
2022/05/02 04:37:13;;;;;;;23.73;12.73;;;;;;;4.38;87.77;101948.59;5088845;28;20459;-72
2022/05/02 04:39:38;;;;;;;24.45;13.48;;;;;;;4.44;87.79;101943.75;5088622;28;20036;-72
2022/05/02 04:42:04;;;;;;;22.80;13.10;;;;;;;4.42;88.04;101941.25;5083018;28;20024;-73
2022/05/02 04:44:31;;;;;;;22.45;12.70;;;;;;;4.48;87.59;101945.16;5075824;28;20040;-73
2022/05/02 04:46:56;;;;;;;23.25;13.57;;;;;;;4.51;88.23;101943.13;5075580;28;20078;-73
2022/05/02 04:49:22;;;;;;;25.10;15.23;;;;;;;4.77;88.52;101940.06;5071188;28;20056;-72
2022/05/02 04:51:47;;;;;;;22.30;11.65;;;;;;;5.48;86.80;101929.44;5087876;28;20031;-73
2022/05/02 04:54:12;;;;;;;26.67;13.68;;;;;;;6.15;84.30;101936.59;5070843;28;20079;-72
2022/05/02 04:56:38;;;;;;;26.35;12.65;;;;;;;6.51;82.08;101938.63;5071354;28;20032;-73
2022/05/02 04:59:03;;;;;;;24.73;13.15;;;;;;;6.47;82.09;101945.19;5069577;28;20037;-73
2022/05/02 05:01:29;;;;;;;29.50;13.25;;;;;;;6.39;83.35;101942.41;5070981;28;20028;-73
2022/05/02 05:03:54;;;;;;;24.98;13.70;;;;;;;6.88;82.84;101948.44;5087769;28;20567;-73
2022/05/02 05:06:19;;;;;;;26.23;12.35;;;;;;;7.83;78.75;101956.00;5072685;28;20043;-73
2022/05/02 05:08:45;;;;;;;27.77;14.48;;;;;;;8.27;76.01;101950.72;5075383;28;20027;-73
2022/05/02 05:11:29;;;;;;;23.45;13.15;;;;;;;8.14;76.07;101944.97;5069327;28;20056;-73
2022/05/02 05:17:53;;;;;;;24.15;12.95;;;;;;;8.43;76.16;101950.03;5078559;28;20050;-73
2022/05/02 05:20:36;;;;;;;30.30;12.52;;;;;;;8.78;75.52;101949.13;5073727;28;20412;-73
2022/05/02 05:23:18;;;;;;;24.00;13.57;;;;;;;9.11;74.24;101948.44;5091884;28;20031;-73
2022/05/02 05:26:02;;;;;;;24.70;13.25;;;;;;;9.08;74.52;101952.25;5092683;28;20632;-73
2022/05/02 05:28:36;;;;;;;27.05;13.48;;;;;;;9.09;74.97;101953.94;5092389;28;20403;-73
2022/05/02 05:31:19;;;;;;;26.48;14.65;;;;;;;9.21;74.58;101954.47;5086774;28;20131;-73
2022/05/02 05:33:56;;;;;;;26.05;15.95;;;;;;;9.43;73.99;101948.56;5074166;28;20135;-73
2022/05/02 05:36:41;;;;;;;27.23;14.55;;;;;;;9.81;72.74;101940.97;5075002;28;20028;-73
2022/05/02 05:39:10;;;;;;;31.05;16.20;;;;;;;9.71;72.96;101939.47;5084719;28;20028;-73
2022/05/02 05:41:54;;;;;;;25.58;14.63;;;;;;;9.51;72.53;101942.44;5084604;28;20028;-73
2022/05/02 05:44:43;;;;;;;24.00;15.05;;;;;;;9.28;73.55;101939.53;5085778;28;20024;-73
2022/05/02 05:47:26;;;;;;;25.40;15.20;;;;;;;9.17;72.87;101951.31;5080456;28;20028;-73
2022/05/02 05:49:52;;;;;;;27.13;15.02;;;;;;;9.05;73.68;101949.91;5091986;28;20088;-73
2022/05/02 05:52:24;;;;;;;23.33;13.10;;;;;;;8.92;73.73;101947.69;5092210;28;20494;-73
2022/05/02 05:55:10;;;;;;;22.98;13.77;;;;;;;8.87;74.45;101957.16;5091879;28;20381;-72
2022/05/02 05:58:07;;;;;;;29.42;15.73;;;;;;;8.90;74.46;101960.31;5092016;28;20135;-73
2022/05/02 06:00:42;;;;;;;24.50;14.43;;;;;;;8.96;74.42;101962.34;5092267;28;20038;-73
2022/05/02 06:03:15;;;;;;;24.70;14.90;;;;;;;9.02;74.40;101966.22;5091920;28;20054;-73
2022/05/02 06:05:46;;;;;;;24.98;14.23;;;;;;;9.09;74.03;101961.94;5073694;28;20028;-73
2022/05/02 06:08:17;;;;;;;26.73;14.68;;;;;;;9.29;73.91;101961.66;5074846;28;20035;-73
2022/05/02 06:10:43;;;;;;;;;;;;;;;9.57;73.70;101959.59;5092192;28;20356;-73
2022/05/02 06:13:10;;;;;;;25.83;14.40;;;;;;;9.68;72.12;101953.13;5091056;28;19910;-73
2022/05/02 06:18:27;;;;;;;23.17;13.15;;;;;;;9.70;71.48;101961.78;5089812;28;20985;-73
2022/05/02 06:20:57;;;;;;;25.25;14.35;;;;;;;9.68;70.55;101967.28;5091438;28;20038;-73
2022/05/02 06:23:25;;;;;;;21.45;11.70;;;;;;;9.70;70.97;101965.28;5083031;28;20028;-73
2022/05/02 06:25:53;;;;;;;19.02;10.68;;;;;;;9.76;70.69;101963.78;5091533;28;20024;-73
2022/05/02 06:28:23;;;;;;;24.70;12.48;;;;;;;9.79;69.61;101963.47;5091577;28;20036;-72
2022/05/02 06:30:51;;;;;;;21.27;12.27;;;;;;;9.82;70.52;101961.31;5090606;28;20103;-73
2022/05/02 06:33:20;;;;;;;20.63;12.10;;;;;;;9.90;69.92;101965.78;5073498;28;20964;-72
2022/05/02 06:36:23;;;;;;;23.88;12.95;;;;;;;9.97;70.19;101961.47;5079274;28;20031;-72
2022/05/02 06:39:05;;;;;;;36.45;11.75;;;;;;;10.03;69.04;101960.84;5090548;28;20028;-73
2022/05/02 06:41:49;;;;;;;20.00;11.63;;;;;;;10.11;69.55;101959.97;5071752;28;20032;-73
2022/05/02 06:44:42;;;;;;;22.35;13.60;;;;;;;10.20;68.80;101969.66;5074905;28;20522;-72
2022/05/02 06:47:27;;;;;;;22.63;13.27;;;;;;;10.29;67.69;101960.69;5081716;28;20511;-71
2022/05/02 06:49:57;;;;;;;20.17;11.40;;;;;;;10.37;66.62;101962.50;5092672;28;20101;-72
2022/05/02 06:52:32;;;;;;;22.55;12.38;;;;;;;10.48;67.24;101962.19;5091018;28;20106;-71
2022/05/02 06:55:16;;;;;;;21.65;11.90;;;;;;;10.58;67.02;101958.50;5089442;28;20056;-72
2022/05/02 06:58:03;;;;;;;22.65;12.65;;;;;;;10.63;66.25;101961.47;5090968;28;20464;-72
2022/05/02 07:00:34;;;;;;;20.52;12.63;;;;;;;10.67;65.83;101957.50;5091101;28;20109;-72
2022/05/02 07:03:13;;;;;;;;;;;;;;;10.78;67.58;101970.47;5091362;28;20027;-71
2022/05/02 07:05:42;;;;;;;19.42;10.77;;;;;;;10.84;65.70;101969.78;5081783;28;19913;-72
2022/05/02 07:08:07;;;;;;;22.85;11.55;;;;;;;10.91;64.04;101969.94;5082706;28;20043;-73
2022/05/02 07:10:36;;;;;;;21.27;11.25;;;;;;;10.95;64.95;101965.91;5083603;28;20379;-72
2022/05/02 07:13:29;;;;;;;25.25;12.00;;;;;;;10.99;64.01;101963.75;5074359;28;20044;-73
2022/05/02 07:16:24;;;;;;;17.40;11.30;;;;;;;11.08;65.00;101965.38;5090099;28;20055;-72
2022/05/02 07:19:21;;;;;;;19.00;11.40;;;;;;;11.15;63.81;101967.16;5082951;28;20544;-72
2022/05/02 07:21:56;;;;;;;18.60;11.20;;;;;;;11.28;62.96;101960.44;5074683;28;20071;-72
2022/05/02 07:24:57;;;;;;;20.65;11.45;;;;;;;11.38;63.33;101969.91;5071090;28;20421;-74
2022/05/02 07:27:44;;;;;;;17.27;10.05;;;;;;;11.66;62.41;101969.44;5090341;28;20123;-74
2022/05/02 07:30:09;;;;;;;20.27;10.98;;;;;;;12.35;59.98;101957.94;5090158;28;20081;-72
2022/05/02 07:32:35;;;;;;;18.17;10.60;;;;;;;13.21;58.41;101953.81;5090338;28;20028;-73
2022/05/02 07:35:01;;;;;;;21.52;12.20;;;;;;;13.69;57.50;101964.09;5105808;28;20024;-72
2022/05/02 07:37:29;;;;;;;15.80;9.85;;;;;;;13.64;55.14;101961.97;5089996;28;20704;-72
2022/05/02 07:39:57;;;;;;;16.90;9.35;;;;;;;13.56;55.77;101962.09;5090217;28;20032;-72
2022/05/02 07:42:25;;;;;;;16.67;9.02;;;;;;;13.38;53.84;101962.50;5089926;28;20031;-73
2022/05/02 07:44:52;;;;;;;20.67;10.38;;;;;;;13.10;54.80;101963.16;5089470;28;20031;-74
2022/05/02 07:47:18;;;;;;;16.23;9.80;;;;;;;13.02;56.35;101957.06;5075668;28;20032;-73
2022/05/02 07:49:48;;;;;;;16.40;9.07;;;;;;;12.97;55.81;101960.31;5087291;28;20491;-72
2022/05/02 07:52:19;;;;;;;19.45;10.20;;;;;;;13.06;55.28;101959.19;5082046;28;20028;-74
2022/05/02 07:54:46;;;;;;;16.90;8.38;;;;;;;13.85;53.80;101958.47;5089783;28;20062;-70
2022/05/02 07:57:15;;;;;;;14.85;9.18;;;;;;;14.21;53.43;101961.09;5090055;28;20039;-72
2022/05/02 07:59:42;;;;;;;15.55;8.80;;;;;;;15.55;49.91;101958.16;5090014;28;20088;-73
2022/05/02 08:02:07;;;;;;;17.45;9.35;;;;;;;17.24;45.16;101958.78;5089911;28;21022;-71
2022/05/02 08:04:36;;;;;;;16.25;8.38;;;;;;;18.38;41.80;101960.53;5089698;28;20070;-70
2022/05/02 08:07:09;;;;;;;13.40;7.10;;;;;;;19.21;40.18;101956.56;5089781;28;20111;-70
2022/05/02 08:10:12;;;;;;;18.95;9.55;;;;;;;19.88;40.88;101955.66;5089642;28;20062;-70
2022/05/02 08:12:47;;;;;;;17.13;9.98;;;;;;;20.12;36.86;101960.09;5088052;28;20105;-70
2022/05/02 08:15:24;;;;;;;15.27;8.43;;;;;;;20.34;37.58;101956.81;5089441;28;20106;-70
2022/05/02 08:18:11;;;;;;;16.77;9.43;;;;;;;20.57;39.03;101953.31;5088183;28;20114;-70
2022/05/02 08:21:21;;;;;;;16.67;8.93;;;;;;;20.68;40.14;101948.94;5089776;28;20353;-70
2022/05/02 08:27:16;;;;;;;17.98;8.85;;;;;;;21.21;35.08;101950.59;5089318;28;20508;-70
2022/05/02 08:29:48;;;;;;;14.00;9.05;;;;;;;20.89;35.62;101952.91;5089328;28;20085;-70
2022/05/02 08:33:00;;;;;;;16.65;9.48;;;;;;;21.46;37.37;101942.16;5088872;28;20074;-70
2022/05/02 08:35:37;;;;;;;;;;;;;;;21.63;37.70;101945.72;5070535;28;20119;-70
2022/05/02 08:38:14;;;;;;;15.98;8.82;;;;;;;22.12;34.27;101945.19;5081924;28;20296;-70
2022/05/02 08:40:42;;;;;;;17.45;11.27;;;;;;;21.95;32.85;101947.06;5089058;28;20024;-70
2022/05/02 08:43:37;;;;;;;15.00;8.65;;;;;;;21.28;33.35;101947.75;5089184;28;20024;-71
2022/05/02 08:47:07;;;;;;;14.18;8.57;;;;;;;21.28;35.89;101940.44;5076941;28;20043;-70
2022/05/02 08:49:44;;;;;;;13.68;7.28;;;;;;;19.94;34.16;101952.06;4987509;28;20034;-70
2022/05/02 08:52:47;;;;;;;14.35;8.60;;;;;;;18.08;37.54;101948.75;4987125;28;20092;-70
2022/05/02 08:55:34;;;;;;;12.55;7.22;;;;;;;17.13;40.25;101959.41;5067753;28;20665;-70
2022/05/02 08:58:23;;;;;;;17.35;7.65;;;;;;;16.32;41.86;101944.41;5089125;28;20027;-70
2022/05/02 09:01:27;;;;;;;15.15;8.07;;;;;;;15.90;42.53;101944.63;5088971;28;20047;-70
2022/05/02 09:04:01;;;;;;;14.70;8.90;;;;;;;15.54;42.73;101945.75;5088873;28;20032;-70
2022/05/02 09:06:35;;;;;;;15.98;8.43;;;;;;;15.47;42.74;101938.69;5088973;28;20024;-70
2022/05/02 09:09:28;;;;;;;15.55;7.55;;;;;;;15.50;45.42;101941.81;5088708;28;20040;-70
2022/05/02 09:12:25;;;;;;;14.25;7.75;;;;;;;15.47;43.16;101939.53;5088953;28;20060;-70
2022/05/02 09:15:05;;;;;;;13.55;8.57;;;;;;;15.37;41.87;101935.56;5089998;28;20024;-70
2022/05/02 09:17:30;;;;;;;14.27;7.72;;;;;;;15.48;41.90;101940.34;5088977;28;20115;-70
2022/05/02 09:20:20;;;;;;;20.13;8.17;;;;;;;15.49;42.37;101937.47;5088817;28;20122;-70
2022/05/02 09:23:03;;;;;;;15.05;8.18;;;;;;;15.43;41.98;101938.28;5088721;28;20285;-70
2022/05/02 09:25:51;;;;;;;15.57;7.85;;;;;;;15.49;42.45;101940.16;5088530;28;20122;-70
2022/05/02 09:28:21;;;;;;;14.57;8.43;;;;;;;15.54;41.85;101936.88;5088676;28;20024;-70
2022/05/02 09:30:56;;;;;;;13.57;7.65;;;;;;;15.65;42.40;101932.75;5072471;28;20492;-70
2022/05/02 09:34:09;;;;;;;15.90;7.35;;;;;;;15.83;43.89;101927.66;5088769;28;20027;-70
2022/05/02 09:37:02;;;;;;;13.27;7.18;;;;;;;16.04;44.35;101925.81;5006790;28;20473;-70
2022/05/02 09:39:47;;;;;;;15.75;8.13;;;;;;;16.13;43.00;101938.00;5088323;28;20031;-70
2022/05/02 09:42:38;;;;;;;13.13;8.07;;;;;;;16.19;42.60;101929.09;5088945;28;20118;-70
2022/05/02 09:51:54;;;;;;;12.68;7.10;;;;;;;16.21;43.61;101911.69;5081151;28;20051;-70
2022/05/02 09:57:35;;;;;;;15.90;8.25;;;;;;;16.30;42.53;101908.81;5088284;28;20116;-70
2022/05/02 10:02:52;;;;;;;14.50;7.07;;;;;;;16.31;41.89;101907.78;5071115;28;20123;-70
2022/05/02 10:05:45;;;;;;;12.23;7.03;;;;;;;16.43;42.97;101908.81;5089486;28;20062;-70
2022/05/02 10:08:32;;;;;;;14.98;8.02;;;;;;;16.61;42.67;101905.44;5091941;28;20045;-70
2022/05/02 10:11:34;;;;;;;15.23;6.85;;;;;;;16.75;42.78;101904.38;5081434;28;20380;-70
2022/05/02 10:14:28;;;;;;;14.77;8.63;;;;;;;16.72;41.21;101895.91;5091696;28;20047;-70
2022/05/02 10:17:12;;;;;;;16.92;7.55;;;;;;;16.68;42.25;101902.72;5091769;28;20085;-70
2022/05/02 10:20:15;;;;;;;17.30;7.32;;;;;;;16.65;42.10;101899.41;5091426;28;20054;-70
2022/05/02 10:23:01;;;;;;;13.35;7.15;;;;;;;16.64;41.71;101888.88;5091733;28;20023;-70
2022/05/02 10:25:41;;;;;;;15.57;8.23;;;;;;;16.44;42.89;101899.66;5080745;28;20024;-70
2022/05/02 10:28:35;;;;;;;15.38;7.95;;;;;;;16.56;42.29;101886.41;5077874;28;20365;-74
2022/05/02 10:31:09;;;;;;;16.15;8.98;;;;;;;16.73;41.79;101901.06;5076383;28;20024;-73
2022/05/02 10:33:44;;;;;;;13.30;7.57;;;;;;;16.55;41.34;101890.94;5074681;28;20375;-73
2022/05/02 10:36:10;;;;;;;14.65;8.32;;;;;;;16.46;40.91;101886.84;5091276;28;20077;-73
2022/05/02 10:38:45;;;;;;;12.77;7.05;;;;;;;16.50;40.85;101890.75;5091386;28;20107;-72
2022/05/02 10:41:19;;;;;;;18.20;9.02;;;;;;;16.57;40.75;101885.34;5091332;28;20028;-74
2022/05/02 10:43:50;;;;;;;14.45;8.50;;;;;;;16.66;41.08;101881.38;5091132;28;20044;-74
2022/05/02 10:46:18;;;;;;;16.88;8.73;;;;;;;16.75;41.71;101873.91;5091194;28;20459;-73
2022/05/02 10:49:03;;;;;;;16.83;9.13;;;;;;;17.01;42.21;101881.09;5091074;28;20028;-73
2022/05/02 10:52:02;;;;;;;13.73;8.88;;;;;;;17.11;41.46;101872.53;5090821;28;20034;-73
2022/05/02 10:54:38;;;;;;;16.63;9.70;;;;;;;17.17;40.02;101872.50;5090498;28;20063;-73
2022/05/02 10:57:30;;;;;;;15.02;8.30;;;;;;;17.05;41.74;101866.13;5090652;28;20524;-73
2022/05/02 11:00:02;;;;;;;15.13;7.97;;;;;;;17.02;39.60;101870.09;5091197;28;20085;-73
2022/05/02 11:02:37;;;;;;;;;;;;;;;17.00;40.90;101872.19;5091395;28;20032;-73
2022/05/02 11:05:16;;;;;;;21.38;9.77;;;;;;;17.00;41.76;101861.41;5090529;28;19919;-73
2022/05/02 11:08:06;;;;;;;14.38;8.13;;;;;;;17.22;41.62;101861.91;5090871;28;20427;-74
2022/05/02 11:10:39;;;;;;;16.70;9.00;;;;;;;17.43;40.41;101857.22;5072604;28;20476;-73
2022/05/02 11:13:10;;;;;;;18.02;8.93;;;;;;;17.48;39.44;101860.09;5090356;28;20027;-74
2022/05/02 11:15:59;;;;;;;13.50;8.10;;;;;;;17.40;40.37;101845.00;5091011;28;20030;-73
2022/05/02 11:21:45;;;;;;;17.67;9.65;;;;;;;17.23;41.00;101850.06;5075219;28;20047;-73
2022/05/02 11:24:30;;;;;;;16.80;10.38;;;;;;;17.31;41.15;101839.03;5081705;28;20674;-73
2022/05/02 11:27:20;;;;;;;18.80;10.43;;;;;;;17.51;40.53;101846.16;5075924;28;20044;-74
2022/05/02 11:29:56;;;;;;;18.52;9.82;;;;;;;17.60;39.77;101839.44;5090411;28;20024;-73
2022/05/02 11:32:36;;;;;;;15.05;8.77;;;;;;;17.54;39.41;101843.03;5090491;28;20109;-73
2022/05/02 11:35:11;;;;;;;18.95;10.88;;;;;;;17.50;39.74;101833.72;5089947;28;20027;-74
2022/05/02 11:38:02;;;;;;;17.33;10.00;;;;;;;17.65;40.20;101831.53;5090191;28;20076;-74
2022/05/02 11:40:32;;;;;;;19.92;10.20;;;;;;;17.70;41.56;101825.47;5090261;28;20518;-73
2022/05/02 11:42:58;;;;;;;16.75;9.77;;;;;;;17.87;41.19;101826.63;5072656;28;20054;-73
2022/05/02 11:45:41;;;;;;;21.00;9.77;;;;;;;17.99;39.65;101834.78;5090148;28;20837;-74
2022/05/02 11:48:29;;;;;;;18.67;9.32;;;;;;;17.91;40.21;101825.09;5089793;28;20038;-73
2022/05/02 11:50:56;;;;;;;17.65;10.00;;;;;;;17.82;39.17;101829.16;5089343;28;20027;-74
2022/05/02 11:53:25;;;;;;;18.45;10.52;;;;;;;17.58;38.35;101827.22;5089736;28;20034;-74
2022/05/02 11:55:52;;;;;;;17.42;10.18;;;;;;;17.60;40.04;101831.34;5089174;28;20972;-74
2022/05/02 11:58:23;;;;;;;14.77;9.35;;;;;;;17.79;40.52;101828.72;5089587;28;20027;-73
2022/05/02 12:01:09;;;;;;;15.23;8.25;;;;;;;17.92;40.50;101823.22;5089580;28;20030;-73
2022/05/02 12:03:49;;;;;;;15.45;8.75;;;;;;;17.94;40.03;101816.56;5089653;28;20024;-73
2022/05/02 12:06:16;;;;;;;17.08;9.75;;;;;;;17.93;38.47;101820.31;5071671;28;20562;-73
2022/05/02 12:08:48;;;;;;;15.57;9.43;;;;;;;17.92;39.40;101824.09;5089282;28;20019;-74
2022/05/02 12:11:14;;;;;;;;;;;;;;;18.10;41.16;101817.03;5090088;28;20040;-73
2022/05/02 12:13:44;;;;;;;16.45;8.55;;;;;;;18.19;38.74;101818.41;5089552;28;19969;-74